DW8626 Madrid ES current weather conditions

sailwx.info

Wind from 185 at 5 knots gusting 6

Air temperature 13.9° C
Dewpoint -1.3° C

Last reported at 2015-Feb-27 14:16 UTC.
Time now 2015-Feb-27 15:27 UTC

Location: N 40°29' W 003°43'.
View on Google Maps.

See reports from other nearby stations

  
Tides and Currents Weather Stations Pressure Air Temp Water Temp Dewpoint Dewpoint Depression Visibility Wind Speed Wind Dir Waves Ship Positions
date/time (UTC)wind fromknots sea level pressurealtimeterstation pressurevisibilityair tempwater tempwave heightnotes
2015-Feb-27 14:16 185 5 gusting 6 13.9
2015-Feb-27 14:02 190 3 gusting 5 14.4
2015-Feb-27 13:46 179 5 gusting 9 13.3
2015-Feb-27 13:18 039 1 gusting 6 13.3
2015-Feb-27 13:01 081 2 gusting 7 12.8
2015-Feb-27 12:46 089 1 gusting 7 12.2
2015-Feb-27 12:31 100 6 gusting 10 11.7
2015-Feb-27 12:16 088 3 gusting 8 12.2
2015-Feb-27 12:02 041 8 gusting 15 11.7
2015-Feb-27 11:46 003 3 gusting 16 11.7
2015-Feb-27 11:31 286 1 gusting 8 11.7
2015-Feb-27 11:16 011 6 gusting 7 11.1
2015-Feb-27 10:31 013 5 gusting 13 10.6
2015-Feb-27 10:16 053 7 gusting 11 11.1
2015-Feb-27 10:01 095 2 gusting 6 11.1
2015-Feb-27 09:46 128 1 gusting 9 11.1
2015-Feb-27 09:31 153 1 gusting 5 11.7
2015-Feb-27 09:16 226 11.7
2015-Feb-27 09:01 143 11.1
2015-Feb-27 08:46 141 0 gusting 2 11.1
2015-Feb-27 08:31 155 1 gusting 4 10.6
2015-Feb-27 07:46 117 8.9
2015-Feb-27 07:31 113 8.9
2015-Feb-27 07:16 095 8.3
2015-Feb-27 07:01 020 8.3
2015-Feb-27 06:47 138 8.3
2015-Feb-27 06:31 068 7.8
2015-Feb-27 06:16 278 7.8
2015-Feb-27 05:48 314 8.3
2015-Feb-27 05:31 243 8.3
2015-Feb-27 05:16 265 8.9
2015-Feb-27 05:01 243 2 gusting 6 8.9
2015-Feb-27 04:46 311 1 gusting 6 8.9
2015-Feb-27 04:31 273 3 gusting 5 8.9
2015-Feb-27 04:16 229 8.3
2015-Feb-27 04:01 163 0 gusting 2 8.3
2015-Feb-27 03:46 250 0 gusting 8 8.3
2015-Feb-27 03:17 256 9 gusting 12 9.4
2015-Feb-27 03:01 256 6 gusting 12 9.4
2015-Feb-27 02:46 286 9.4
2015-Feb-27 02:31 274 4 gusting 12 8.9
2015-Feb-27 02:16 210 8.9
2015-Feb-27 02:01 275 1 gusting 4 8.9
2015-Feb-27 01:46 290 8.9
2015-Feb-27 01:31 257 8.9
2015-Feb-27 01:16 269 8.9
2015-Feb-27 01:01 297 9.4
2015-Feb-27 00:46 210 0 gusting 1 8.9
2015-Feb-27 00:31 250 9.4
2015-Feb-27 00:16 228 0 gusting 2 9.4
2015-Feb-27 00:01 212 9.4
2015-Feb-26 23:46 225 0 gusting 1 9.4
2015-Feb-26 23:31 190 9.4
2015-Feb-26 23:16 263 10.0
2015-Feb-26 23:01 240 10.0
2015-Feb-26 22:46 236 10.0
2015-Feb-26 22:32 208 10.6
2015-Feb-26 22:17 177 10.6
2015-Feb-26 22:01 290 0 gusting 3 10.6
2015-Feb-26 21:46 256 0 gusting 5 10.6
2015-Feb-26 21:31 212 10.6
2015-Feb-26 21:16 294 3 gusting 9 10.6
2015-Feb-26 21:01 322 0 gusting 4 10.6
2015-Feb-26 20:46 266 1 gusting 4 10.6
2015-Feb-26 20:31 303 0 gusting 3 10.6
2015-Feb-26 20:16 248 2 gusting 6 10.6
2015-Feb-26 20:01 285 10.6
2015-Feb-26 19:46 278 10.6
2015-Feb-26 19:31 256 1 gusting 4 10.6
2015-Feb-26 19:16 181 10.6
2015-Feb-26 19:01 191 1 gusting 4 11.1
2015-Feb-26 18:46 169 0 gusting 5 10.6
2015-Feb-26 18:31 229 1 gusting 4 10.6
2015-Feb-26 18:16 222 1 gusting 5 10.6
2015-Feb-26 18:02 166 0 gusting 0 10.6
2015-Feb-26 17:47 271 0 gusting 4 11.1
2015-Feb-26 17:32 260 0 gusting 3 11.1
2015-Feb-26 17:17 261 11.1
2015-Feb-26 17:01 290 11.7